Impacts TAF Board
For situational awareness. Not to be used for flight planning purposes.
IDs:

KCLE - Cleveland/Hopkins In, OH, US

Issued at 0532 UTC 24 Mar 2019
Updated at 0639 UTC 24 Mar 2019
Potential Impact None Slight Moderate High
Time0551Z 24/07Z 24/08Z 24/09Z 24/10Z 24/11Z 24/12Z 24/13Z 24/14Z 24/15Z 24/16Z 24/17Z 24/18Z 24/19Z>>
Type OBS PRVL PRVL PRVL PRVL PRVL PRVL PRVL PRVL PRVL PRVL PRVL PRVL PRVL
VIS 10 >6 >6 >6 >6 >6 >6 >6 >6 >6 >6 >6 >6 >6
CIG -- 250 250 250 250 250 250 250 250 250 250 250 80 80
Cover FEW BKN BKN BKN BKN BKN BKN BKN BKN BKN BKN BKN OVC OVC
FltCat VFR VFR VFR VFR VFR VFR VFR VFR VFR VFR VFR VFR VFR VFR
WX -- -- -- -- -- -- -- -- -- -- -- -- -- --
WDir 190 180 180 180 180 180 180 180 180 180 180 180 290 290
WSpd 5 6 6 6 6 6 6 6 6 6 6 6 9 9
WGst -- -- -- -- -- -- -- -- -- -- -- -- -- --
Raw TAF
KCLE 240532Z 2406/2512 18006KT P6SM BKN250
  FM241800 29009KT P6SM OVC080
  FM250300 02010KT P6SM OVC035
  FM251000 03013G23KT 5SM -SHSN BKN025


Raw METAR
KCLE 240551Z 19005KT 10SM FEW250 00/M06 A3025 RMK AO2 SLP250 T00001056 10044 21006 58008
KCLE 240451Z 19007KT 10SM CLR 01/M06 A3026 RMK AO2 SLP253 T00111056 400781017
KCLE 240351Z 19005KT 10SM CLR 02/M06 A3027 RMK AO2 SLP258 T00171061

METAR Board
Radar Display
Forecast Discussion
For situational awareness. Not to be used for flight planning purposes.